Time;durP1;ratioP1;P1;durP2;ratioP2;P2;SDS_P1;SDS_P2;PMS_P1;PMS_P2;Temp;Humidity;BMP_temperature;BMP_pressure;BME280_temperature;BME280_humidity;BME280_pressure;Samples;Min_cycle;Max_cycle;Signal;HPM_P1;HPM_P2
2023/03/13 00:02:26;;;;;;;;;;;;;;;28.07;58.35;101261.41;5043253;28;65924;-37
2023/03/13 00:04:57;;;;;;;;;;;;;;;28.13;58.68;101264.38;5047549;28;69274;-38
2023/03/13 00:07:27;;;;;;;;;;;;;;;28.16;58.15;101266.69;5045528;27;66868;-38
2023/03/13 00:09:57;;;;;;;;;;;;;;;28.18;58.19;101270.03;5041767;28;70057;-40
2023/03/13 00:12:28;;;;;;;;;;;;;;;28.18;58.23;101272.72;5044053;28;66188;-39
2023/03/13 00:14:58;;;;;;;;;;;;;;;28.20;57.63;101273.38;5050967;27;69701;-38
2023/03/13 00:17:29;;;;;;;;;;;;;;;28.20;57.76;101286.84;5050024;27;66562;-38
2023/03/13 00:19:59;;;;;;;;;;;;;;;28.22;57.73;101271.28;5048901;28;70308;-37
2023/03/13 00:22:29;;;;;;;;;;;;;;;28.23;57.09;101279.22;5044858;28;66540;-37
2023/03/13 00:24:59;;;;;;;;;;;;;;;28.22;57.38;101282.09;5049696;28;70519;-37
2023/03/13 00:27:32;;;;;;;;;;;;;;;28.23;57.32;101276.50;5046648;28;65923;-36
2023/03/13 00:30:02;;;;;;;;;;;;;;;28.23;56.79;101276.50;5050207;28;70150;-38
2023/03/13 00:32:32;;;;;;;;;;;;;;;28.25;56.75;101273.59;5047063;28;66721;-38
2023/03/13 00:35:02;;;;;;;;;;;;;;;28.27;56.91;101274.25;5049165;28;69519;-38
2023/03/13 00:37:33;;;;;;;;;;;;;;;28.26;57.47;101272.59;5050907;28;66180;-38
2023/03/13 00:40:04;;;;;;;;;;;;;;;28.27;57.41;101280.47;5048191;28;70282;-40
2023/03/13 00:42:35;;;;;;;;;;;;;;;27.69;55.97;101208.72;5050015;28;66368;-37
2023/03/13 00:45:05;;;;;;;;;;;;;;;28.23;55.88;101286.47;5056962;28;70304;-38
2023/03/13 00:47:35;;;;;;;;;;;;;;;28.24;55.74;101293.53;5050266;28;65668;-38
2023/03/13 00:50:05;;;;;;;;;;;;;;;28.25;55.56;101292.47;5044783;28;69651;-38
2023/03/13 00:52:36;;;;;;;;;;;;;;;28.26;55.55;101294.19;5055012;28;67424;-38
2023/03/13 00:55:06;;;;;;;;;;;;;;;28.26;54.99;101295.00;5055751;28;70138;-38
2023/03/13 00:57:37;;;;;;;;;;;;;;;28.27;55.29;101301.22;5067109;27;66945;-38
2023/03/13 01:00:07;;;;;;;;;;;;;;;28.29;54.77;101291.09;5062929;27;70329;-38
2023/03/13 01:02:41;;;;;;;;;;;;;;;28.29;54.75;101283.81;5043802;28;66459;-38
2023/03/13 01:05:12;;;;;;;;;;;;;;;28.28;54.71;101286.72;5047151;28;69553;-39
2023/03/13 01:07:42;;;;;;;;;;;;;;;28.32;54.77;101289.88;5075988;27;66507;-38
2023/03/13 01:10:12;;;;;;;;;;;;;;;28.31;54.47;101280.94;5052257;28;70714;-39
2023/03/13 01:12:42;;;;;;;;;;;;;;;28.33;54.63;101278.88;5045802;28;66111;-38
2023/03/13 01:15:13;;;;;;;;;;;;;;;28.34;54.56;101283.25;5051557;28;70387;-38
2023/03/13 01:17:43;;;;;;;;;;;;;;;28.33;54.29;101284.25;5046359;27;66272;-38
2023/03/13 01:20:13;;;;;;;;;;;;;;;28.36;54.30;101293.84;5052383;28;68888;-38
2023/03/13 01:22:44;;;;;;;;;;;;;;;28.37;54.41;101290.97;5044499;28;66040;-38
2023/03/13 01:25:14;;;;;;;;;;;;;;;28.39;54.45;101293.44;5056159;27;70245;-38
2023/03/13 01:27:44;;;;;;;;;;;;;;;28.39;54.35;101294.31;5081185;27;66989;-39
2023/03/13 01:30:14;;;;;;;;;;;;;;;28.40;53.95;101290.56;5053898;28;69441;-40
2023/03/13 01:32:44;;;;;;;;;;;;;;;28.41;53.77;101297.63;5038096;28;66490;-43
2023/03/13 01:35:17;;;;;;;;;;;;;;;28.42;53.87;101293.94;5042178;28;70433;-39
2023/03/13 01:37:47;;;;;;;;;;;;;;;28.44;53.71;101297.25;5053380;28;66548;-39
2023/03/13 01:40:17;;;;;;;;;;;;;;;28.45;54.06;101298.97;5050394;28;70292;-38
2023/03/13 01:42:51;;;;;;;;;;;;;;;28.47;53.64;101291.50;5055174;28;66764;-38
2023/03/13 01:45:40;;;;;;;;;;;;;;;28.48;53.61;101303.13;5045604;28;70724;-40
2023/03/13 01:48:10;;;;;;;;;;;;;;;28.50;53.64;101304.63;5056142;27;66487;-38
2023/03/13 01:50:50;;;;;;;;;;;;;;;28.51;53.62;101295.47;5060780;27;70622;-38
2023/03/13 01:53:26;;;;;;;;;;;;;;;28.54;53.88;101301.53;5044686;28;67086;-39
2023/03/13 01:55:59;;;;;;;;;;;;;;;28.55;53.46;101300.47;5043834;27;70707;-40
2023/03/13 01:58:30;;;;;;;;;;;;;;;28.57;53.37;101303.81;5053316;28;66751;-37
2023/03/13 02:01:00;;;;;;;;;;;;;;;28.59;53.78;101309.88;5045566;28;69611;-40
2023/03/13 02:03:31;;;;;;;;;;;;;;;28.60;53.40;101309.66;5053133;28;65937;-38
2023/03/13 02:06:01;;;;;;;;;;;;;;;28.62;53.54;101307.59;5041848;28;70105;-38
2023/03/13 02:08:34;;;;;;;;;;;;;;;28.64;53.50;101304.69;5052162;28;65854;-37
2023/03/13 02:11:13;;;;;;;;;;;;;;;28.66;53.43;101305.34;5042900;28;70405;-38
2023/03/13 02:13:43;;;;;;;;;;;;;;;28.67;53.16;101307.03;5039048;28;67319;-39
2023/03/13 02:16:13;;;;;;;;;;;;;;;28.69;53.33;101304.94;5045336;27;70251;-38
2023/03/13 02:18:48;;;;;;;;;;;;;;;28.71;53.21;101297.50;5047567;28;66533;-38
2023/03/13 02:21:36;;;;;;;;;;;;;;;28.74;53.08;101297.09;5040241;28;70545;-37
2023/03/13 02:24:28;;;;;;;;;;;;;;;28.76;53.42;101295.06;5082570;27;66808;-38
2023/03/13 02:26:58;;;;;;;;;;;;;;;28.78;53.08;101297.53;5074918;27;70684;-38
2023/03/13 02:29:28;;;;;;;;;;;;;;;28.81;52.86;101303.41;5049513;28;66570;-37
2023/03/13 02:31:59;;;;;;;;;;;;;;;28.83;53.31;101301.31;5080532;27;70312;-38
2023/03/13 02:34:31;;;;;;;;;;;;;;;28.85;53.41;101307.38;5055208;28;65831;-38
2023/03/13 02:37:04;;;;;;;;;;;;;;;28.87;53.34;101302.63;5050420;28;69992;-38
2023/03/13 02:39:36;;;;;;;;;;;;;;;28.90;53.15;101296.00;5049852;28;66771;-38
2023/03/13 02:42:07;;;;;;;;;;;;;;;28.92;52.84;101289.34;5044509;28;69506;-38
2023/03/13 02:44:39;;;;;;;;;;;;;;;28.94;53.22;101303.47;5045394;28;67092;-38
2023/03/13 02:47:10;;;;;;;;;;;;;;;28.98;53.22;101300.41;5042213;28;70606;-39
2023/03/13 02:49:41;;;;;;;;;;;;;;;29.00;53.22;101295.63;5054563;27;66536;-38
2023/03/13 02:52:11;;;;;;;;;;;;;;;29.01;52.62;101300.84;5051982;28;70511;-38
2023/03/13 02:54:45;;;;;;;;;;;;;;;29.05;53.06;101304.00;5082154;27;66304;-38
2023/03/13 02:57:15;;;;;;;;;;;;;;;29.06;53.01;101297.56;5043636;28;70217;-38
2023/03/13 02:59:45;;;;;;;;;;;;;;;29.10;52.63;101298.84;5049161;28;66631;-38
2023/03/13 03:02:17;;;;;;;;;;;;;;;29.12;53.04;101288.69;5047046;28;70481;-38
2023/03/13 03:04:47;;;;;;;;;;;;;;;29.14;52.64;101283.91;5042448;28;66290;-37
2023/03/13 03:07:17;;;;;;;;;;;;;;;29.16;52.72;101276.44;5056003;28;70131;-38
2023/03/13 03:09:47;;;;;;;;;;;;;;;29.19;52.87;101278.72;5048872;28;66867;-38
2023/03/13 03:12:20;;;;;;;;;;;;;;;29.21;52.99;101276.69;5077831;27;70614;-37
2023/03/13 03:14:50;;;;;;;;;;;;;;;29.24;53.03;101281.69;5062484;27;66342;-38
2023/03/13 03:17:21;;;;;;;;;;;;;;;29.27;52.94;101269.63;5070964;27;70189;-38
2023/03/13 03:19:51;;;;;;;;;;;;;;;29.29;52.67;101268.41;5049022;28;66837;-38
2023/03/13 03:22:22;;;;;;;;;;;;;;;29.31;52.34;101263.66;5040712;28;69843;-38
2023/03/13 03:24:52;;;;;;;;;;;;;;;29.35;52.74;101273.00;5047000;28;66402;-38
2023/03/13 03:27:24;;;;;;;;;;;;;;;29.37;52.58;101270.94;5030307;28;70198;-38
2023/03/13 03:29:55;;;;;;;;;;;;;;;29.39;52.42;101263.47;5042129;27;66719;-38
2023/03/13 03:32:25;;;;;;;;;;;;;;;29.41;52.63;101260.56;5051707;28;70439;-39
2023/03/13 03:34:55;;;;;;;;;;;;;;;29.44;52.70;101252.03;5049552;28;66691;-38
2023/03/13 03:37:25;;;;;;;;;;;;;;;29.47;52.05;101237.28;5054565;28;69328;-38
2023/03/13 03:39:55;;;;;;;;;;;;;;;29.49;52.34;101232.53;5080585;27;66794;-39
2023/03/13 03:42:27;;;;;;;;;;;;;;;29.51;52.16;101233.16;5045105;28;70845;-42
2023/03/13 03:44:58;;;;;;;;;;;;;;;29.54;52.16;101232.75;5087575;27;66722;-39
2023/03/13 03:47:29;;;;;;;;;;;;;;;29.57;52.26;101222.38;5052926;27;70238;-38
2023/03/13 03:50:02;;;;;;;;;;;;;;;29.59;52.36;101223.00;5086176;27;65990;-39
2023/03/13 03:52:40;;;;;;;;;;;;;;;29.62;52.05;101221.75;5065079;28;70328;-38
2023/03/13 03:55:11;;;;;;;;;;;;;;;29.64;51.82;101211.59;5046393;28;66831;-38
2023/03/13 03:57:41;;;;;;;;;;;;;;;29.67;51.68;101213.06;5077540;27;69672;-38
2023/03/13 04:00:20;;;;;;;;;;;;;;;29.69;52.25;101203.69;5085310;27;66086;-39
2023/03/13 04:02:57;;;;;;;;;;;;;;;29.72;51.62;101197.06;5055158;28;70589;-38
2023/03/13 04:05:27;;;;;;;;;;;;;;;29.75;51.49;101196.66;5050584;27;66759;-39
2023/03/13 04:07:58;;;;;;;;;;;;;;;29.76;52.04;101193.75;5045725;28;70602;-38
2023/03/13 04:10:29;;;;;;;;;;;;;;;29.79;51.42;101177.09;5030697;28;65676;-38
2023/03/13 04:12:59;;;;;;;;;;;;;;;29.82;51.35;101176.69;5042345;28;70025;-39
2023/03/13 04:15:29;;;;;;;;;;;;;;;29.84;51.82;101166.50;5081972;27;66964;-39
2023/03/13 04:17:59;;;;;;;;;;;;;;;29.88;51.24;101168.81;5045254;28;69865;-38
2023/03/13 04:20:30;;;;;;;;;;;;;;;29.90;51.25;101155.91;5048370;28;66342;-40
2023/03/13 04:23:01;;;;;;;;;;;;;;;29.94;51.81;101151.75;5055425;27;70910;-38
2023/03/13 04:25:31;;;;;;;;;;;;;;;29.96;51.53;101149.66;5080473;27;66970;-38
2023/03/13 04:28:02;;;;;;;;;;;;;;;29.98;51.58;101142.19;5064512;27;70022;-39
2023/03/13 04:30:40;;;;;;;;;;;;;;;30.00;50.97;101130.09;5062696;27;66714;-39
2023/03/13 04:33:30;;;;;;;;;;;;;;;30.04;51.34;101130.53;5054297;28;70140;-39
2023/03/13 04:36:21;;;;;;;;;;;;;;;30.06;51.07;101123.00;5047707;28;66028;-39
2023/03/13 04:39:24;;;;;;;;;;;;;;;30.09;51.36;101119.91;5064613;27;70330;-40
2023/03/13 04:42:12;;;;;;;;;;;;;;;30.12;51.16;101118.66;5047151;28;66191;-41
2023/03/13 04:45:07;;;;;;;;;;;;;;;30.13;51.26;101099.50;5050502;28;69792;-38
2023/03/13 04:48:00;;;;;;;;;;;;;;;30.15;51.33;101105.53;5053534;28;66425;-40
2023/03/13 04:50:47;;;;;;;;;;;;;;;30.18;51.23;101091.59;5055214;28;70686;-38
2023/03/13 04:53:39;;;;;;;;;;;;;;;30.20;51.52;101092.22;5044932;28;66028;-38
2023/03/13 04:56:23;;;;;;;;;;;;;;;30.22;51.23;101084.72;5043251;28;70343;-38
2023/03/13 04:59:28;;;;;;;;;;;;;;;30.24;51.74;101077.25;5048980;28;65646;-38
2023/03/13 05:02:17;;;;;;;;;;;;;;;30.25;51.33;101070.78;5049814;28;69670;-40
2023/03/13 05:05:07;;;;;;;;;;;;;;;30.28;51.29;101072.22;5042823;28;66204;-38
2023/03/13 05:07:56;;;;;;;;;;;;;;;30.29;51.32;101063.09;5056800;27;70404;-38
2023/03/13 05:10:32;;;;;;;;;;;;;;;30.32;51.25;101059.13;5047376;28;66681;-38
2023/03/13 05:13:28;;;;;;;;;;;;;;;30.34;51.74;101055.16;5034404;28;70414;-38
2023/03/13 05:16:04;;;;;;;;;;;;;;;30.36;51.44;101041.41;5053280;28;65668;-37
2023/03/13 05:18:47;;;;;;;;;;;;;;;30.40;51.67;101040.78;5050009;28;70653;-38
2023/03/13 05:21:25;;;;;;;;;;;;;;;30.42;51.54;101029.72;5050661;28;66307;-39
2023/03/13 05:24:21;;;;;;;;;;;;;;;30.44;51.57;101023.06;5046296;28;70446;-38
2023/03/13 05:27:17;;;;;;;;;;;;;;;30.47;51.14;101019.09;5054396;28;66670;-39
2023/03/13 05:30:19;;;;;;;;;;;;;;;30.49;50.88;101011.59;5046760;28;70187;-38
2023/03/13 05:33:04;;;;;;;;;;;;;;;30.51;50.66;100987.84;5049057;28;66281;-38
2023/03/13 05:36:07;;;;;;;;;;;;;;;30.56;50.56;100990.72;5049828;28;69475;-38
2023/03/13 05:39:03;;;;;;;;;;;;;;;30.58;50.65;100977.81;5054948;28;65837;-40
2023/03/13 05:41:48;;;;;;;;;;;;;;;30.61;51.01;100974.66;5047850;28;69965;-39
2023/03/13 05:44:39;;;;;;;;;;;;;;;30.63;50.35;100975.28;5054654;28;67446;-38
2023/03/13 05:47:42;;;;;;;;;;;;;;;30.66;50.57;100971.31;5047806;28;69494;-38
2023/03/13 05:50:40;;;;;;;;;;;;;;;30.69;50.59;100963.59;5045770;28;66014;-38
2023/03/13 05:53:30;;;;;;;;;;;;;;;30.72;50.35;100957.72;5049383;28;69441;-39
2023/03/13 05:56:18;;;;;;;;;;;;;;;30.76;50.66;100949.16;5050793;28;66898;-41
2023/03/13 05:59:11;;;;;;;;;;;;;;;30.78;50.58;100947.91;5043910;28;70332;-38
2023/03/13 06:01:57;;;;;;;;;;;;;;;30.80;50.16;100936.91;5047986;28;66420;-38
2023/03/13 06:04:34;;;;;;;;;;;;;;;30.84;50.27;100935.41;5078703;27;70263;-40
2023/03/13 06:07:05;;;;;;;;;;;;;;;30.86;49.97;100919.75;5046945;28;65973;-38
2023/03/13 06:09:35;;;;;;;;;;;;;;;30.89;50.29;100930.16;5075478;27;69362;-39
2023/03/13 06:12:10;;;;;;;;;;;;;;;30.92;49.88;100906.19;5046755;27;66159;-38
2023/03/13 06:14:40;;;;;;;;;;;;;;;30.96;49.72;100911.16;5056667;28;70618;-38
2023/03/13 06:17:33;;;;;;;;;;;;;;;30.98;49.92;100904.47;5046453;28;66197;-40
2023/03/13 06:20:04;;;;;;;;;;;;;;;31.01;49.89;100892.34;5047207;28;69954;-39
2023/03/13 06:22:34;;;;;;;;;;;;;;;31.03;50.10;100888.38;5052605;28;66075;-40
2023/03/13 06:25:05;;;;;;;;;;;;;;;31.06;50.02;100868.97;5041871;27;69978;-38
2023/03/13 06:27:35;;;;;;;;;;;;;;;31.09;49.78;100881.25;5047735;28;66621;-41
2023/03/13 06:30:08;;;;;;;;;;;;;;;31.12;49.95;100876.22;5053927;28;70003;-39
2023/03/13 06:32:38;;;;;;;;;;;;;;;31.16;49.50;100874.72;5050728;28;66020;-41
2023/03/13 06:35:09;;;;;;;;;;;;;;;31.20;49.71;100869.66;5046616;28;69547;-39
2023/03/13 06:37:39;;;;;;;;;;;;;;;31.24;49.47;100870.06;5044658;27;66058;-38
2023/03/13 06:40:10;;;;;;;;;;;;;;;31.26;49.54;100868.81;5051422;27;70036;-40
2023/03/13 06:42:40;;;;;;;;;;;;;;;31.29;49.20;100867.53;5049363;28;66510;-40
2023/03/13 06:45:10;;;;;;;;;;;;;;;31.32;49.48;100856.25;5045782;28;69853;-41
2023/03/13 06:47:40;;;;;;;;;;;;;;;31.34;49.12;100844.13;5048815;28;66031;-39
2023/03/13 06:50:11;;;;;;;;;;;;;;;31.37;49.47;100837.44;5049504;28;69823;-39
2023/03/13 06:52:42;;;;;;;;;;;;;;;31.41;48.92;100827.81;5050478;28;66339;-39
2023/03/13 06:55:12;;;;;;;;;;;;;;;31.44;48.95;100821.94;5047351;28;70018;-39
2023/03/13 06:57:42;;;;;;;;;;;;;;;31.48;49.13;100816.88;5047763;27;66867;-39
2023/03/13 07:00:13;;;;;;;;;;;;;;;31.51;48.92;100817.28;5044826;28;70082;-38
2023/03/13 07:02:44;;;;;;;;;;;;;;;31.55;48.72;100806.81;5050167;27;66882;-39
2023/03/13 07:05:14;;;;;;;;;;;;;;;31.58;48.72;100812.59;5059400;27;69716;-38
2023/03/13 07:07:44;;;;;;;;;;;;;;;31.59;48.68;100808.84;5037673;28;66989;-38
2023/03/13 07:10:14;;;;;;;;;;;;;;;31.63;48.61;100809.22;5054189;28;70525;-39
2023/03/13 07:12:45;;;;;;;;;;;;;;;31.66;48.72;100803.31;5039207;28;66152;-37
2023/03/13 07:15:15;;;;;;;;;;;;;;;31.68;48.71;100789.53;5046359;27;69547;-37
2023/03/13 07:17:45;;;;;;;;;;;;;;;31.73;48.48;100792.38;5045564;28;66659;-38
2023/03/13 07:20:15;;;;;;;;;;;;;;;31.75;48.46;100785.69;5047383;28;70238;-40
2023/03/13 07:22:50;;;;;;;;;;;;;;;31.78;48.17;100784.41;5051668;28;66453;-38
2023/03/13 07:25:20;;;;;;;;;;;;;;;31.80;48.16;100779.56;5042390;28;69446;-38
2023/03/13 07:27:51;;;;;;;;;;;;;;;31.84;48.36;100772.63;5052983;27;67040;-38
2023/03/13 07:30:21;;;;;;;;;;;;;;;31.87;48.06;100771.34;5053890;28;68786;-39
2023/03/13 07:32:52;;;;;;;;;;;;;;;31.89;48.26;100761.91;5046610;27;66056;-38
2023/03/13 07:35:22;;;;;;;;;;;;;;;31.92;47.67;100764.19;5052965;28;70440;-38
2023/03/13 07:37:52;;;;;;;;;;;;;;;31.97;47.94;100755.38;5056205;28;65697;-38
2023/03/13 07:40:22;;;;;;;;;;;;;;;32.01;47.81;100759.28;5051334;28;70197;-39
2023/03/13 07:42:52;;;;;;;;;;;;;;;32.03;47.79;100749.84;5050593;28;66478;-38
2023/03/13 07:45:23;;;;;;;;;;;;;;;32.09;47.78;100741.84;5044519;28;70404;-39
2023/03/13 07:47:53;;;;;;;;;;;;;;;32.12;47.59;100742.19;5054971;28;67112;-38
2023/03/13 07:50:23;;;;;;;;;;;;;;;32.18;47.56;100751.28;5051770;28;69869;-38
2023/03/13 07:52:53;;;;;;;;;;;;;;;32.21;47.63;100743.53;5055592;28;66905;-38
2023/03/13 07:55:23;;;;;;;;;;;;;;;32.25;47.38;100741.19;5072742;27;68983;-37
2023/03/13 07:57:53;;;;;;;;;;;;;;;31.88;47.44;100681.59;5048504;28;66208;-38
2023/03/13 08:00:24;;;;;;;;;;;;;;;32.30;47.37;100733.16;5042900;28;70774;-38
2023/03/13 08:02:54;;;;;;;;;;;;;;;32.34;47.21;100728.91;5041308;28;66815;-39
2023/03/13 08:05:24;;;;;;;;;;;;;;;32.37;47.15;100723.00;5051282;28;70078;-39
2023/03/13 08:07:55;;;;;;;;;;;;;;;32.41;47.20;100713.34;5076995;27;66255;-40
2023/03/13 08:10:25;;;;;;;;;;;;;;;32.46;47.07;100720.84;5047974;28;70188;-38
2023/03/13 08:12:55;;;;;;;;;;;;;;;32.51;46.79;100718.22;5049802;28;66674;-38
2023/03/13 08:15:28;;;;;;;;;;;;;;;32.53;46.84;100720.69;5047143;27;68666;-38
2023/03/13 08:17:58;;;;;;;;;;;;;;;32.57;46.74;100711.00;5053944;28;66652;-38
2023/03/13 08:20:28;;;;;;;;;;;;;;;32.60;46.74;100716.00;5051525;28;69888;-38
2023/03/13 08:22:59;;;;;;;;;;;;;;;32.64;46.57;100714.44;5043946;28;67475;-39
2023/03/13 08:25:29;;;;;;;;;;;;;;;32.70;46.59;100710.78;5050439;28;70482;-38
2023/03/13 08:27:59;;;;;;;;;;;;;;;32.75;46.39;100708.19;5050295;27;65772;-38
2023/03/13 08:30:30;;;;;;;;;;;;;;;32.79;46.20;100706.66;5051475;28;69600;-39
2023/03/13 08:33:00;;;;;;;;;;;;;;;32.82;46.54;100703.47;5043662;27;66040;-39
2023/03/13 08:35:30;;;;;;;;;;;;;;;32.86;46.16;100707.34;5042854;28;69917;-37
2023/03/13 08:38:13;;;;;;;;;;;;;;;32.90;46.13;100713.97;5046736;27;65784;-38
2023/03/13 08:40:43;;;;;;;;;;;;;;;32.94;46.01;100717.84;5046038;27;70359;-39
2023/03/13 08:43:13;;;;;;;;;;;;;;;32.99;45.93;100724.44;5047172;27;66564;-38
2023/03/13 08:45:44;;;;;;;;;;;;;;;33.04;46.11;100722.72;5043122;28;69898;-38
2023/03/13 08:48:14;;;;;;;;;;;;;;;33.07;45.94;100730.41;5046364;28;66427;-37
2023/03/13 08:50:45;;;;;;;;;;;;;;;33.11;46.02;100725.31;5059146;27;70096;-39
2023/03/13 08:53:15;;;;;;;;;;;;;;;33.15;45.93;100729.19;5047883;28;66612;-39
2023/03/13 08:55:51;;;;;;;;;;;;;;;33.20;45.86;100737.44;5047456;28;70196;-40
2023/03/13 08:58:21;;;;;;;;;;;;;;;33.24;45.80;100743.22;5051316;28;65465;-38
2023/03/13 09:00:52;;;;;;;;;;;;;;;33.28;45.78;100737.06;5044825;27;70415;-39
2023/03/13 09:03:22;;;;;;;;;;;;;;;33.31;45.60;100733.88;5052088;27;67070;-40
2023/03/13 09:05:53;;;;;;;;;;;;;;;33.35;45.63;100735.06;5052195;28;70212;-40
2023/03/13 09:08:24;;;;;;;;;;;;;;;33.38;45.63;100741.91;5057496;28;66192;-39
2023/03/13 09:10:56;;;;;;;;;;;;;;;33.40;45.84;100741.66;5050308;28;70974;-39
2023/03/13 09:13:26;;;;;;;;;;;;;;;33.41;45.30;100743.31;5046075;28;65706;-38
2023/03/13 09:16:00;;;;;;;;;;;;;;;33.43;45.45;100746.59;5044889;28;69830;-40
2023/03/13 09:18:31;;;;;;;;;;;;;;;33.46;45.30;100751.56;5053282;28;66008;-39
2023/03/13 09:21:04;;;;;;;;;;;;;;;33.46;45.51;100746.97;5044298;28;69217;-39
2023/03/13 09:23:34;;;;;;;;;;;;;;;33.50;45.45;100752.75;5054945;28;66319;-38
2023/03/13 09:26:05;;;;;;;;;;;;;;;33.52;45.31;100758.78;5056411;28;69863;-38
2023/03/13 09:28:35;;;;;;;;;;;;;;;33.54;45.38;100751.22;5057436;28;66231;-38
2023/03/13 09:31:07;;;;;;;;;;;;;;;33.55;45.43;100750.16;5073720;27;69921;-38
2023/03/13 09:33:38;;;;;;;;;;;;;;;33.57;45.47;100764.31;5055646;28;66803;-39
2023/03/13 09:36:08;;;;;;;;;;;;;;;33.57;45.63;100767.91;5054841;28;69316;-39
2023/03/13 09:38:39;;;;;;;;;;;;;;;33.57;45.45;100758.88;5053015;28;65502;-41
2023/03/13 09:41:18;;;;;;;;;;;;;;;33.59;45.69;100773.91;5041859;28;69862;-40
2023/03/13 09:44:07;;;;;;;;;;;;;;;33.58;45.49;100766.81;5053306;28;66704;-39
2023/03/13 09:46:37;;;;;;;;;;;;;;;33.59;45.69;100779.34;5044180;28;69425;-40
2023/03/13 09:49:20;;;;;;;;;;;;;;;33.59;45.60;100778.50;5045157;28;66227;-38
2023/03/13 09:51:52;;;;;;;;;;;;;;;33.58;45.47;100782.31;5056039;28;69790;-40
2023/03/13 09:54:43;;;;;;;;;;;;;;;33.58;45.65;100776.88;5039964;28;66742;-39
2023/03/13 09:57:19;;;;;;;;;;;;;;;33.58;45.72;100788.56;5053466;28;70311;-40
2023/03/13 09:59:56;;;;;;;;;;;;;;;33.56;45.98;100781.72;5051804;27;67049;-40
2023/03/13 10:02:29;;;;;;;;;;;;;;;33.57;45.58;100791.53;5057981;28;70193;-38
2023/03/13 10:05:02;;;;;;;;;;;;;;;33.56;45.65;100789.88;5048558;28;66299;-40
2023/03/13 10:07:32;;;;;;;;;;;;;;;33.57;45.96;100794.25;5040691;28;69527;-40
2023/03/13 10:10:03;;;;;;;;;;;;;;;33.55;45.65;100794.50;5045179;28;66054;-40
2023/03/13 10:12:39;;;;;;;;;;;;;;;33.51;45.84;100804.16;5044784;27;69854;-39
2023/03/13 10:15:22;;;;;;;;;;;;;;;33.48;45.73;100812.78;5050017;28;66569;-40
2023/03/13 10:17:52;;;;;;;;;;;;;;;33.15;46.95;100816.16;5057160;28;70077;-38
2023/03/13 10:20:32;;;;;;;;;;;;;;;32.86;47.82;100821.44;5041685;27;66945;-42
2023/03/13 10:23:12;;;;;;;;;;;;;;;32.65;48.41;100822.84;5045968;28;69852;-40
2023/03/13 10:25:42;;;;;;;;;;;;;;;32.53;48.88;100813.84;5048494;28;66568;-42
2023/03/13 10:28:13;;;;;;;;;;;;;;;32.42;48.94;100814.63;5049248;28;69880;-41
2023/03/13 10:30:46;;;;;;;;;;;;;;;32.35;49.12;100817.44;5076371;27;66204;-40
2023/03/13 10:33:18;;;;;;;;;;;;;;;32.26;49.69;100822.38;5046151;28;70700;-41
2023/03/13 10:35:59;;;;;;;;;;;;;;;32.36;49.58;100824.53;5051211;28;66549;-39
2023/03/13 10:38:31;;;;;;;;;;;;;;;32.58;49.09;100826.72;5047849;28;70378;-41
2023/03/13 10:41:09;;;;;;;;;;;;;;;32.71;49.15;100831.97;5045246;28;66751;-39
2023/03/13 10:43:48;;;;;;;;;;;;;;;32.47;49.78;100831.91;5050295;28;69318;-41
2023/03/13 10:46:25;;;;;;;;;;;;;;;32.31;50.08;100843.38;5046103;27;66315;-39
2023/03/13 10:48:56;;;;;;;;;;;;;;;32.18;50.25;100839.00;5050357;28;70370;-39
2023/03/13 10:51:34;;;;;;;;;;;;;;;32.18;50.50;100840.84;5045532;28;66660;-40
2023/03/13 10:54:14;;;;;;;;;;;;;;;32.12;50.77;100844.50;5044006;28;70684;-40
2023/03/13 10:56:44;;;;;;;;;;;;;;;32.05;50.93;100850.84;5040225;27;65939;-41
2023/03/13 10:59:22;;;;;;;;;;;;;;;32.02;50.87;100851.31;5042614;28;70064;-42
2023/03/13 11:01:57;;;;;;;;;;;;;;;32.00;51.18;100850.69;5045797;28;65985;-41
2023/03/13 11:04:32;;;;;;;;;;;;;;;31.97;51.03;100864.72;5039343;27;70545;-41
2023/03/13 11:07:14;;;;;;;;;;;;;;;31.95;51.55;100861.41;5049650;28;66832;-38
2023/03/13 11:09:51;;;;;;;;;;;;;;;31.93;52.19;100863.53;5050257;28;69621;-40
2023/03/13 11:12:21;;;;;;;;;;;;;;;32.12;51.78;100864.31;5048779;27;66890;-39
2023/03/13 11:14:59;;;;;;;;;;;;;;;32.28;51.44;100874.53;5043966;28;69449;-40
2023/03/13 11:17:39;;;;;;;;;;;;;;;32.39;50.98;100872.91;5041179;28;65558;-39
2023/03/13 11:20:18;;;;;;;;;;;;;;;32.47;51.13;100877.22;5045061;28;70320;-40
2023/03/13 11:22:55;;;;;;;;;;;;;;;32.55;50.84;100881.50;5051579;28;66908;-40
2023/03/13 11:25:38;;;;;;;;;;;;;;;32.58;50.93;100881.03;5044466;28;70048;-39
2023/03/13 11:28:11;;;;;;;;;;;;;;;32.60;50.99;100889.78;5044842;28;64517;-40
2023/03/13 11:30:44;;;;;;;;;;;;;;;32.61;50.89;100889.56;5046702;27;70354;-40
2023/03/13 11:33:29;;;;;;;;;;;;;;;32.62;50.59;100885.75;5040264;27;67166;-39
2023/03/13 11:36:01;;;;;;;;;;;;;;;32.62;50.45;100891.19;5046642;28;69200;-40
2023/03/13 11:38:36;;;;;;;;;;;;;;;32.63;50.36;100900.19;5042763;28;64929;-41
2023/03/13 11:41:15;;;;;;;;;;;;;;;32.63;50.35;100901.00;5042031;28;70021;-40
2023/03/13 11:44:09;;;;;;;;;;;;;;;32.62;50.47;100895.81;5044790;28;66551;-40
2023/03/13 11:46:57;;;;;;;;;;;;;;;32.64;50.25;100907.28;5046011;28;70192;-39
2023/03/13 11:49:27;;;;;;;;;;;;;;;32.63;50.32;100916.50;5046433;28;65973;-39
2023/03/13 11:52:03;;;;;;;;;;;;;;;32.62;50.25;100920.25;5043326;27;70506;-40
2023/03/13 11:54:37;;;;;;;;;;;;;;;32.60;50.44;100911.53;5059553;27;66489;-50
2023/03/13 11:57:13;;;;;;;;;;;;;;;32.60;50.47;100919.66;5043626;28;70149;-39
2023/03/13 11:59:54;;;;;;;;;;;;;;;32.58;50.35;100914.47;5048116;28;65513;-38
2023/03/13 12:02:34;;;;;;;;;;;;;;;32.55;50.32;100919.53;5045126;28;69121;-41
2023/03/13 12:05:09;;;;;;;;;;;;;;;32.53;50.29;100919.75;5045071;28;67023;-40
2023/03/13 12:07:50;;;;;;;;;;;;;;;32.51;50.38;100918.31;5064763;27;70129;-40
2023/03/13 12:10:24;;;;;;;;;;;;;;;32.49;50.20;100932.16;5049578;28;65229;-39
2023/03/13 12:13:07;;;;;;;;;;;;;;;32.46;50.33;100922.56;5078483;27;70259;-40
2023/03/13 12:15:39;;;;;;;;;;;;;;;32.44;50.45;100935.50;5048636;28;66799;-40
2023/03/13 12:18:15;;;;;;;;;;;;;;;32.41;50.33;100938.69;5043395;28;70040;-41
2023/03/13 12:20:55;;;;;;;;;;;;;;;32.40;50.17;100939.75;5052822;28;66460;-41
2023/03/13 12:23:43;;;;;;;;;;;;;;;32.39;50.54;100946.22;5051832;28;70549;-39
2023/03/13 12:26:15;;;;;;;;;;;;;;;32.28;51.44;100941.56;5057446;28;65740;-39
2023/03/13 12:28:55;;;;;;;;;;;;;;;32.05;52.47;100948.53;5042991;28;69772;-44
2023/03/13 12:31:33;;;;;;;;;;;;;;;31.93;53.26;100961.19;5043933;28;66413;-40
2023/03/13 12:34:12;;;;;;;;;;;;;;;32.04;52.31;100952.31;5051864;27;70024;-39
2023/03/13 12:36:42;;;;;;;;;;;;;;;32.08;51.78;100957.28;5049805;28;67865;-41
2023/03/13 12:39:31;;;;;;;;;;;;;;;32.11;51.40;100956.81;5046508;28;70501;-43
2023/03/13 12:42:07;;;;;;;;;;;;;;;32.11;51.23;100956.81;5044750;28;65607;-40
2023/03/13 12:44:38;;;;;;;;;;;;;;;32.11;51.04;100963.06;5050889;28;70492;-41
2023/03/13 12:47:15;;;;;;;;;;;;;;;32.11;51.24;100965.78;5047967;27;66316;-40
2023/03/13 12:49:51;;;;;;;;;;;;;;;32.10;50.97;100971.44;5053519;28;70459;-40
2023/03/13 12:52:39;;;;;;;;;;;;;;;32.09;50.97;100975.19;5055155;28;66122;-40
2023/03/13 12:55:09;;;;;;;;;;;;;;;32.08;50.84;100978.97;5045402;28;69630;-43
2023/03/13 12:57:49;;;;;;;;;;;;;;;32.07;51.26;100971.88;5043323;27;66610;-41
2023/03/13 13:00:21;;;;;;;;;;;;;;;32.05;50.68;100975.66;5050418;28;70197;-40
2023/03/13 13:03:10;;;;;;;;;;;;;;;32.04;51.00;100984.88;5076773;27;66750;-41
2023/03/13 13:05:56;;;;;;;;;;;;;;;32.04;51.67;100990.28;5077925;27;70114;-41
2023/03/13 13:08:31;;;;;;;;;;;;;;;32.03;51.88;100990.50;5042229;28;66611;-41
2023/03/13 13:11:19;;;;;;;;;;;;;;;32.03;52.40;100988.63;5080276;27;70244;-40
2023/03/13 13:13:51;;;;;;;;;;;;;;;32.03;52.35;100988.63;5047694;27;65701;-43
2023/03/13 13:16:22;;;;;;;;;;;;;;;32.05;52.51;101001.97;5048753;28;69870;-41